Vg 117 Kungsvik — SBTH — position and weather

sailwx.info

Track history (hours):
 
Tides and Currents Weather Stations Pressure Air Temp Water Temp Dewpoint Dewpoint Depression Visibility Wind Speed Wind Dir Waves Ship Positions

Vg 117 Kungsvik

Last reported at 2014-Jul-22 08:18 UTC. Time now 2014-Jul-22 09:15 UTC.
Position N 57°04' E 012°16'.

Length 17 m.

Type: Fishing. MMSI: 266137000.

Date/timePositionNaut miles runAvg speedWind from/ knotsBaromVisibWave heightAir tempDewpointWater temp
2014-Jul-22 08:18N 57°04' E 012°16'0 0.0
2014-Jul-22 07:24N 57°04' E 012°16'0 0.0
2014-Jul-22 06:21N 57°04' E 012°16'6 5.9
2014-Jul-22 05:24N 57°03' E 012°06'6 5.9
2014-Jul-22 04:27N 57°03' E 011°56'2 2.0
2014-Jul-22 03:31N 57°03' E 011°53'2 2.5
2014-Jul-22 02:32N 57°03' E 011°48'5 2.3
2014-Jul-22 00:14N 56°58' E 011°47'0 0.6
2014-Jul-21 23:31N 56°58' E 011°48'1 1.1
2014-Jul-21 22:33N 56°59' E 011°46'2 2.3
2014-Jul-21 21:33N 57°01' E 011°46'2 2.4
2014-Jul-21 20:33N 57°02' E 011°49'1 2.6
2014-Jul-21 20:18N 57°03' E 011°50'2 2.6
2014-Jul-21 19:33N 57°03' E 011°54'3 2.5
2014-Jul-21 18:33N 57°03' E 011°58'7 6.2
2014-Jul-21 17:28N 57°03' E 012°11'3 1.3
2014-Jul-21 15:04N 57°04' E 012°16'1 0.2
2014-Jul-21 06:16N 57°03' E 012°14'6 7.3
2014-Jul-21 05:26N 57°03' E 012°03'5 3.9
2014-Jul-21 04:12N 57°03' E 011°54'2 2.6
2014-Jul-21 03:17N 57°02' E 011°50'4 1.5
2014-Jul-21 00:29N 56°58' E 011°49'3 2.5
2014-Jul-20 23:29N 57°00' E 011°51'2 1.3
2014-Jul-20 22:20N 56°60' E 011°48'1 1.6
2014-Jul-20 21:33N 57°01' E 011°48'3 2.5
2014-Jul-20 20:33N 57°03' E 011°52'3 2.5
2014-Jul-20 19:33N 57°04' E 011°56'3 2.7
2014-Jul-20 18:32N 57°02' E 012°00'6 5.8
2014-Jul-20 17:33N 56°59' E 012°09'6 1.3
2014-Jul-20 13:04N 57°04' E 012°16'0 0.0
2014-Jul-20 04:28N 57°04' E 012°16'0 0.0
2014-Jul-20 03:28N 57°04' E 012°16'0 0.0
2014-Jul-20 01:11N 57°04' E 012°16'0 0.0
2014-Jul-20 00:11N 57°04' E 012°16'0 0.0
2014-Jul-19 22:05N 57°04' E 012°16'0 0.0
2014-Jul-19 21:29N 57°04' E 012°16'0 0.0
2014-Jul-19 16:23N 57°04' E 012°16'0 0.0
2014-Jul-19 12:11N 57°04' E 012°16'0 0.0
2014-Jul-19 09:05N 57°04' E 012°16'0 0.0
2014-Jul-19 02:05N 57°04' E 012°16'0 0.0
2014-Jul-19 00:05N 57°04' E 012°16'0 0.0
2014-Jul-18 23:29N 57°04' E 012°16'0 0.0
2014-Jul-18 22:23N 57°04' E 012°16'0 0.0
2014-Jul-18 15:11N 57°04' E 012°16'0 0.0
2014-Jul-18 06:23N 57°03' E 012°16'6 7.7
2014-Jul-18 05:33N 56°58' E 012°09'7 6.7
2014-Jul-18 04:32N 56°52' E 012°03'2 1.8
2014-Jul-18 03:33N 56°51' E 012°01'2 2.5
2014-Jul-18 02:33N 56°49' E 011°59'1 1.4
2014-Jul-18 01:33N 56°47' E 011°58'2 2.5
2014-Jul-18 00:33N 56°50' E 011°59'2 2.4
2014-Jul-17 23:32N 56°51' E 012°02'2 1.7
2014-Jul-17 22:32N 56°51' E 011°59'3 2.3
2014-Jul-17 21:20N 56°48' E 011°60'1 1.5
2014-Jul-17 20:31N 56°49' E 011°58'2 2.3
2014-Jul-17 19:33N 56°50' E 012°00'3 2.5
2014-Jul-17 18:30N 56°52' E 012°04'7 6.8
2014-Jul-17 17:32N 56°58' E 012°09'7 6.2
2014-Jul-17 16:28N 57°04' E 012°16'0 0.0
2014-Jul-17 15:22N 57°04' E 012°16'0 0.0
2014-Jul-17 14:28N 57°04' E 012°16'0 0.0
2014-Jul-17 13:28N 57°04' E 012°16'0 0.0
2014-Jul-17 12:16N 57°04' E 012°16'0 0.0
2014-Jul-17 11:28N 57°04' E 012°16'0 0.0
2014-Jul-17 10:28N 57°04' E 012°16'0 0.0
2014-Jul-17 09:28N 57°04' E 012°16'0 0.0
2014-Jul-17 08:28N 57°04' E 012°16'0 0.0
2014-Jul-17 07:22N 57°04' E 012°16'0 0.0
2014-Jul-17 06:21N 57°04' E 012°16'6 6.7
2014-Jul-17 05:29N 56°59' E 012°11'6 6.8
2014-Jul-17 04:33N 56°53' E 012°05'2 1.8
2014-Jul-17 03:33N 56°52' E 012°03'2 1.9
2014-Jul-17 02:33N 56°51' E 011°60'4 1.9
2014-Jul-17 00:33N 56°47' E 012°02'3 2.7
2014-Jul-16 23:33N 56°47' E 011°57'2 1.2
2014-Jul-16 21:33N 56°47' E 012°02'2 2.2
2014-Jul-16 20:33N 56°48' E 011°58'3 2.5
2014-Jul-16 19:32N 56°51' E 011°60'2 2.5
2014-Jul-16 18:33N 56°52' E 012°03'6 6.1
2014-Jul-16 17:33N 56°58' E 012°09'7 7.0
2014-Jul-16 16:33N 57°03' E 012°16'0 0.3
2014-Jul-16 15:26N 57°04' E 012°16'0 0.0
2014-Jul-16 14:32N 57°04' E 012°16'0 0.0
2014-Jul-16 13:26N 57°04' E 012°16'0 0.0
2014-Jul-16 12:26N 57°04' E 012°16'0 0.0
2014-Jul-16 11:20N 57°04' E 012°16'0 0.0
2014-Jul-16 10:20N 57°04' E 012°16'0 0.0
2014-Jul-16 09:26N 57°04' E 012°16'0 0.0
2014-Jul-16 08:32N 57°04' E 012°16'0 0.0
2014-Jul-16 07:32N 57°04' E 012°16'0 0.0
2014-Jul-16 06:30N 57°04' E 012°16'6 6.4
2014-Jul-16 05:32N 56°59' E 012°09'7 6.6
2014-Jul-16 04:33N 56°53' E 012°04'2 2.2
2014-Jul-16 03:33N 56°51' E 012°02'2 2.4
2014-Jul-16 02:33N 56°49' E 012°03'2 2.0
2014-Jul-16 01:33N 56°47' E 012°00'2 1.9
2014-Jul-16 00:33N 56°49' E 011°59'2 2.5
2014-Jul-15 23:33N 56°51' E 012°01'2 1.4
2014-Jul-15 22:15N 56°49' E 012°00'2 2.4
2014-Jul-15 21:33N 56°48' E 012°01'2 1.7
2014-Jul-15 20:33N 56°49' E 011°59'3 2.5
2014-Jul-15 19:33N 56°51' E 012°01'3 2.5
2014-Jul-15 18:33N 56°53' E 012°05'7 6.5
2014-Jul-15 17:33N 56°59' E 012°10'6 5.8
2014-Jul-15 16:32N 57°04' E 012°16'0 0.0
2014-Jul-15 15:24N 57°04' E 012°16'0 0.0
2014-Jul-15 14:30N 57°04' E 012°16'0 0.0
2014-Jul-15 13:30N 57°04' E 012°16'0 0.0
2014-Jul-15 12:30N 57°04' E 012°16'0 0.0
2014-Jul-15 11:12N 57°04' E 012°16'0 0.0
2014-Jul-15 10:30N 57°04' E 012°16'0 0.0
2014-Jul-15 09:30N 57°04' E 012°16'0 0.0
2014-Jul-15 08:30N 57°04' E 012°16'0 0.0
2014-Jul-15 07:12N 57°04' E 012°16'1 1.1
2014-Jul-15 06:31N 57°03' E 012°15'6 6.1
2014-Jul-15 05:33N 56°58' E 012°10'6 6.3
2014-Jul-15 04:32N 56°52' E 012°05'2 2.0
2014-Jul-15 03:33N 56°51' E 012°02'4 2.0
2014-Jul-15 01:33N 56°48' E 011°60'2 2.2
2014-Jul-15 00:26N 56°50' E 011°59'2 2.5
2014-Jul-14 23:33N 56°52' E 012°01'2 1.6
2014-Jul-14 22:28N 56°50' E 011°59'3 2.5
2014-Jul-14 21:25N 56°48' E 012°00'1 1.5
2014-Jul-14 20:33N 56°49' E 011°59'2 2.5
2014-Jul-14 19:33N 56°51' E 012°01'2 2.5
2014-Jul-14 18:33N 56°53' E 012°04'7 7.1
2014-Jul-14 17:32N 56°59' E 012°11'5 4.7
2014-Jul-14 16:22N 57°04' E 012°16'0 0.0
2014-Jul-14 15:22N 57°04' E 012°16'0 0.0
2014-Jul-14 14:28N 57°04' E 012°16'0 0.0
2014-Jul-14 13:28N 57°04' E 012°16'0 0.0
2014-Jul-14 12:28N 57°04' E 012°16'0 0.0
2014-Jul-14 11:28N 57°04' E 012°16'0 0.0
2014-Jul-14 10:28N 57°04' E 012°16'0 0.0
2014-Jul-14 09:28N 57°04' E 012°16'0 0.0
2014-Jul-14 08:28N 57°04' E 012°16'0 0.0
2014-Jul-14 07:28N 57°04' E 012°16'0 0.0
2014-Jul-14 06:28N 57°04' E 012°16'0 0.0
2014-Jul-14 05:28N 57°04' E 012°16'0 0.0
2014-Jul-14 04:16N 57°04' E 012°16'0 0.0
2014-Jul-14 03:22N 57°04' E 012°16'0 0.0
2014-Jul-14 02:16N 57°04' E 012°16'0 0.0
2014-Jul-14 01:28N 57°04' E 012°16'0 0.0
2014-Jul-14 00:16N 57°04' E 012°16'0 0.0
2014-Jul-13 23:22N 57°04' E 012°16'0 0.0
2014-Jul-13 21:22N 57°04' E 012°16'0 0.0
2014-Jul-13 20:22N 57°04' E 012°16'0 0.0
2014-Jul-13 19:28N 57°04' E 012°16'0 0.0
2014-Jul-13 18:22N 57°04' E 012°16'0 0.0
2014-Jul-13 17:22N 57°04' E 012°16'0 0.0
2014-Jul-13 16:28N 57°04' E 012°16'0 0.0
2014-Jul-13 15:22N 57°04' E 012°16'0 0.0
2014-Jul-13 14:22N 57°04' E 012°16'0 0.0
2014-Jul-13 13:22N 57°04' E 012°16'0 0.0
2014-Jul-13 12:28N 57°04' E 012°16'0 0.0
2014-Jul-13 11:28N 57°04' E 012°16'0 0.0
2014-Jul-13 10:10N 57°04' E 012°16'0 0.0
2014-Jul-13 09:16N 57°04' E 012°16'0 0.0
2014-Jul-13 08:22N 57°04' E 012°16'0 0.0
2014-Jul-13 07:16N 57°04' E 012°16'0 0.0
2014-Jul-13 06:28N 57°04' E 012°16'0 0.0
2014-Jul-13 05:22N 57°04' E 012°16'0 0.0
2014-Jul-13 04:22N 57°04' E 012°16'0 0.0
2014-Jul-13 03:10N 57°04' E 012°16'0 0.0
2014-Jul-13 02:28N 57°04' E 012°16'0 0.0
2014-Jul-13 01:28N 57°04' E 012°16'0 0.0
2014-Jul-13 00:28N 57°04' E 012°16'0 0.0
2014-Jul-12 23:10N 57°04' E 012°16'0 0.0
2014-Jul-12 22:10N 57°04' E 012°16'0 0.0
2014-Jul-12 21:22N 57°04' E 012°16'0 0.0
2014-Jul-12 20:22N 57°04' E 012°16'0 0.0
2014-Jul-12 19:28N 57°04' E 012°16'0 0.0
2014-Jul-12 18:28N 57°04' E 012°16'0 0.0
2014-Jul-12 17:28N 57°04' E 012°16'0 0.0
2014-Jul-12 16:28N 57°04' E 012°16'0 0.0
2014-Jul-12 15:28N 57°04' E 012°16'0 0.0
2014-Jul-12 14:22N 57°04' E 012°16'0 0.0
2014-Jul-12 13:28N 57°04' E 012°16'0 0.0
2014-Jul-12 12:28N 57°04' E 012°16'0 0.0
2014-Jul-12 11:28N 57°04' E 012°16'0 0.0
2014-Jul-12 10:28N 57°04' E 012°16'0 0.0
2014-Jul-12 09:28N 57°04' E 012°16'0 0.0
2014-Jul-12 08:28N 57°04' E 012°16'  
Track history (hours):
 
Tides and Currents Weather Stations Pressure Air Temp Water Temp Dewpoint Dewpoint Depression Visibility Wind Speed Wind Dir Waves Ship Positions

Vg 117 Kungsvik

Last reported at 2014-Jul-22 08:18 UTC. Time now 2014-Jul-22 09:15 UTC.
Position N 57°04' E 012°16'.

Length 17 m.

Type: Fishing. MMSI: 266137000.

Date/timePositionNaut miles runAvg speedWind from/ knotsBaromVisibWave heightAir tempDewpointWater temp
2014-Jul-22 08:18N 57°04' E 012°16'0 0.0
2014-Jul-22 07:24N 57°04' E 012°16'0 0.0
2014-Jul-22 06:21N 57°04' E 012°16'6 5.9
2014-Jul-22 05:24N 57°03' E 012°06'6 5.9
2014-Jul-22 04:27N 57°03' E 011°56'2 2.0
2014-Jul-22 03:31N 57°03' E 011°53'2 2.5
2014-Jul-22 02:32N 57°03' E 011°48'5 2.3
2014-Jul-22 00:14N 56°58' E 011°47'0 0.6
2014-Jul-21 23:31N 56°58' E 011°48'1 1.1
2014-Jul-21 22:33N 56°59' E 011°46'2 2.3
2014-Jul-21 21:33N 57°01' E 011°46'2 2.4
2014-Jul-21 20:33N 57°02' E 011°49'1 2.6
2014-Jul-21 20:18N 57°03' E 011°50'2 2.6
2014-Jul-21 19:33N 57°03' E 011°54'3 2.5
2014-Jul-21 18:33N 57°03' E 011°58'7 6.2
2014-Jul-21 17:28N 57°03' E 012°11'3 1.3
2014-Jul-21 15:04N 57°04' E 012°16'1 0.2
2014-Jul-21 06:16N 57°03' E 012°14'6 7.3
2014-Jul-21 05:26N 57°03' E 012°03'5 3.9
2014-Jul-21 04:12N 57°03' E 011°54'2 2.6
2014-Jul-21 03:17N 57°02' E 011°50'4 1.5
2014-Jul-21 00:29N 56°58' E 011°49'3 2.5
2014-Jul-20 23:29N 57°00' E 011°51'2 1.3
2014-Jul-20 22:20N 56°60' E 011°48'1 1.6
2014-Jul-20 21:33N 57°01' E 011°48'3 2.5
2014-Jul-20 20:33N 57°03' E 011°52'3 2.5
2014-Jul-20 19:33N 57°04' E 011°56'3 2.7
2014-Jul-20 18:32N 57°02' E 012°00'6 5.8
2014-Jul-20 17:33N 56°59' E 012°09'6 1.3
2014-Jul-20 13:04N 57°04' E 012°16'0 0.0
2014-Jul-20 04:28N 57°04' E 012°16'0 0.0
2014-Jul-20 03:28N 57°04' E 012°16'0 0.0
2014-Jul-20 01:11N 57°04' E 012°16'0 0.0
2014-Jul-20 00:11N 57°04' E 012°16'0 0.0
2014-Jul-19 22:05N 57°04' E 012°16'0 0.0
2014-Jul-19 21:29N 57°04' E 012°16'0 0.0
2014-Jul-19 16:23N 57°04' E 012°16'0 0.0
2014-Jul-19 12:11N 57°04' E 012°16'0 0.0
2014-Jul-19 09:05N 57°04' E 012°16'0 0.0
2014-Jul-19 02:05N 57°04' E 012°16'0 0.0
2014-Jul-19 00:05N 57°04' E 012°16'0 0.0
2014-Jul-18 23:29N 57°04' E 012°16'0 0.0
2014-Jul-18 22:23N 57°04' E 012°16'0 0.0
2014-Jul-18 15:11N 57°04' E 012°16'0 0.0
2014-Jul-18 06:23N 57°03' E 012°16'6 7.7
2014-Jul-18 05:33N 56°58' E 012°09'7 6.7
2014-Jul-18 04:32N 56°52' E 012°03'2 1.8
2014-Jul-18 03:33N 56°51' E 012°01'2 2.5
2014-Jul-18 02:33N 56°49' E 011°59'1 1.4
2014-Jul-18 01:33N 56°47' E 011°58'2 2.5
2014-Jul-18 00:33N 56°50' E 011°59'2 2.4
2014-Jul-17 23:32N 56°51' E 012°02'2 1.7
2014-Jul-17 22:32N 56°51' E 011°59'3 2.3
2014-Jul-17 21:20N 56°48' E 011°60'1 1.5
2014-Jul-17 20:31N 56°49' E 011°58'2 2.3
2014-Jul-17 19:33N 56°50' E 012°00'3 2.5
2014-Jul-17 18:30N 56°52' E 012°04'7 6.8
2014-Jul-17 17:32N 56°58' E 012°09'7 6.2
2014-Jul-17 16:28N 57°04' E 012°16'0 0.0
2014-Jul-17 15:22N 57°04' E 012°16'0 0.0
2014-Jul-17 14:28N 57°04' E 012°16'0 0.0
2014-Jul-17 13:28N 57°04' E 012°16'0 0.0
2014-Jul-17 12:16N 57°04' E 012°16'0 0.0
2014-Jul-17 11:28N 57°04' E 012°16'0 0.0
2014-Jul-17 10:28N 57°04' E 012°16'0 0.0
2014-Jul-17 09:28N 57°04' E 012°16'0 0.0
2014-Jul-17 08:28N 57°04' E 012°16'0 0.0
2014-Jul-17 07:22N 57°04' E 012°16'0 0.0
2014-Jul-17 06:21N 57°04' E 012°16'6 6.7
2014-Jul-17 05:29N 56°59' E 012°11'6 6.8
2014-Jul-17 04:33N 56°53' E 012°05'2 1.8
2014-Jul-17 03:33N 56°52' E 012°03'2 1.9
2014-Jul-17 02:33N 56°51' E 011°60'4 1.9
2014-Jul-17 00:33N 56°47' E 012°02'3 2.7
2014-Jul-16 23:33N 56°47' E 011°57'2 1.2
2014-Jul-16 21:33N 56°47' E 012°02'2 2.2
2014-Jul-16 20:33N 56°48' E 011°58'3 2.5
2014-Jul-16 19:32N 56°51' E 011°60'2 2.5
2014-Jul-16 18:33N 56°52' E 012°03'6 6.1
2014-Jul-16 17:33N 56°58' E 012°09'7 7.0
2014-Jul-16 16:33N 57°03' E 012°16'0 0.3
2014-Jul-16 15:26N 57°04' E 012°16'0 0.0
2014-Jul-16 14:32N 57°04' E 012°16'0 0.0
2014-Jul-16 13:26N 57°04' E 012°16'0 0.0
2014-Jul-16 12:26N 57°04' E 012°16'0 0.0
2014-Jul-16 11:20N 57°04' E 012°16'0 0.0
2014-Jul-16 10:20N 57°04' E 012°16'0 0.0
2014-Jul-16 09:26N 57°04' E 012°16'0 0.0
2014-Jul-16 08:32N 57°04' E 012°16'0 0.0
2014-Jul-16 07:32N 57°04' E 012°16'0 0.0
2014-Jul-16 06:30N 57°04' E 012°16'6 6.4
2014-Jul-16 05:32N 56°59' E 012°09'7 6.6
2014-Jul-16 04:33N 56°53' E 012°04'2 2.2
2014-Jul-16 03:33N 56°51' E 012°02'2 2.4
2014-Jul-16 02:33N 56°49' E 012°03'2 2.0
2014-Jul-16 01:33N 56°47' E 012°00'2 1.9
2014-Jul-16 00:33N 56°49' E 011°59'2 2.5
2014-Jul-15 23:33N 56°51' E 012°01'2 1.4
2014-Jul-15 22:15N 56°49' E 012°00'2 2.4
2014-Jul-15 21:33N 56°48' E 012°01'2 1.7
2014-Jul-15 20:33N 56°49' E 011°59'3 2.5
2014-Jul-15 19:33N 56°51' E 012°01'3 2.5
2014-Jul-15 18:33N 56°53' E 012°05'7 6.5
2014-Jul-15 17:33N 56°59' E 012°10'6 5.8
2014-Jul-15 16:32N 57°04' E 012°16'0 0.0
2014-Jul-15 15:24N 57°04' E 012°16'0 0.0
2014-Jul-15 14:30N 57°04' E 012°16'0 0.0
2014-Jul-15 13:30N 57°04' E 012°16'0 0.0
2014-Jul-15 12:30N 57°04' E 012°16'0 0.0
2014-Jul-15 11:12N 57°04' E 012°16'0 0.0
2014-Jul-15 10:30N 57°04' E 012°16'0 0.0
2014-Jul-15 09:30N 57°04' E 012°16'0 0.0
2014-Jul-15 08:30N 57°04' E 012°16'0 0.0
2014-Jul-15 07:12N 57°04' E 012°16'1 1.1
2014-Jul-15 06:31N 57°03' E 012°15'6 6.1
2014-Jul-15 05:33N 56°58' E 012°10'6 6.3
2014-Jul-15 04:32N 56°52' E 012°05'2 2.0
2014-Jul-15 03:33N 56°51' E 012°02'4 2.0
2014-Jul-15 01:33N 56°48' E 011°60'2 2.2
2014-Jul-15 00:26N 56°50' E 011°59'2 2.5
2014-Jul-14 23:33N 56°52' E 012°01'2 1.6
2014-Jul-14 22:28N 56°50' E 011°59'3 2.5
2014-Jul-14 21:25N 56°48' E 012°00'1 1.5
2014-Jul-14 20:33N 56°49' E 011°59'2 2.5
2014-Jul-14 19:33N 56°51' E 012°01'2 2.5
2014-Jul-14 18:33N 56°53' E 012°04'7 7.1
2014-Jul-14 17:32N 56°59' E 012°11'5 4.7
2014-Jul-14 16:22N 57°04' E 012°16'0 0.0
2014-Jul-14 15:22N 57°04' E 012°16'0 0.0
2014-Jul-14 14:28N 57°04' E 012°16'0 0.0
2014-Jul-14 13:28N 57°04' E 012°16'0 0.0
2014-Jul-14 12:28N 57°04' E 012°16'0 0.0
2014-Jul-14 11:28N 57°04' E 012°16'0 0.0
2014-Jul-14 10:28N 57°04' E 012°16'0 0.0
2014-Jul-14 09:28N 57°04' E 012°16'0 0.0
2014-Jul-14 08:28N 57°04' E 012°16'0 0.0
2014-Jul-14 07:28N 57°04' E 012°16'0 0.0
2014-Jul-14 06:28N 57°04' E 012°16'0 0.0
2014-Jul-14 05:28N 57°04' E 012°16'0 0.0
2014-Jul-14 04:16N 57°04' E 012°16'0 0.0
2014-Jul-14 03:22N 57°04' E 012°16'0 0.0
2014-Jul-14 02:16N 57°04' E 012°16'0 0.0
2014-Jul-14 01:28N 57°04' E 012°16'0 0.0
2014-Jul-14 00:16N 57°04' E 012°16'0 0.0
2014-Jul-13 23:22N 57°04' E 012°16'0 0.0
2014-Jul-13 21:22N 57°04' E 012°16'0 0.0
2014-Jul-13 20:22N 57°04' E 012°16'0 0.0
2014-Jul-13 19:28N 57°04' E 012°16'0 0.0
2014-Jul-13 18:22N 57°04' E 012°16'0 0.0
2014-Jul-13 17:22N 57°04' E 012°16'0 0.0
2014-Jul-13 16:28N 57°04' E 012°16'0 0.0
2014-Jul-13 15:22N 57°04' E 012°16'0 0.0
2014-Jul-13 14:22N 57°04' E 012°16'0 0.0
2014-Jul-13 13:22N 57°04' E 012°16'0 0.0
2014-Jul-13 12:28N 57°04' E 012°16'0 0.0
2014-Jul-13 11:28N 57°04' E 012°16'0 0.0
2014-Jul-13 10:10N 57°04' E 012°16'0 0.0
2014-Jul-13 09:16N 57°04' E 012°16'0 0.0
2014-Jul-13 08:22N 57°04' E 012°16'0 0.0
2014-Jul-13 07:16N 57°04' E 012°16'0 0.0
2014-Jul-13 06:28N 57°04' E 012°16'0 0.0
2014-Jul-13 05:22N 57°04' E 012°16'0 0.0
2014-Jul-13 04:22N 57°04' E 012°16'0 0.0
2014-Jul-13 03:10N 57°04' E 012°16'0 0.0
2014-Jul-13 02:28N 57°04' E 012°16'0 0.0
2014-Jul-13 01:28N 57°04' E 012°16'0 0.0
2014-Jul-13 00:28N 57°04' E 012°16'0 0.0
2014-Jul-12 23:10N 57°04' E 012°16'0 0.0
2014-Jul-12 22:10N 57°04' E 012°16'0 0.0
2014-Jul-12 21:22N 57°04' E 012°16'0 0.0
2014-Jul-12 20:22N 57°04' E 012°16'0 0.0
2014-Jul-12 19:28N 57°04' E 012°16'0 0.0
2014-Jul-12 18:28N 57°04' E 012°16'0 0.0
2014-Jul-12 17:28N 57°04' E 012°16'0 0.0
2014-Jul-12 16:28N 57°04' E 012°16'0 0.0
2014-Jul-12 15:28N 57°04' E 012°16'0 0.0
2014-Jul-12 14:22N 57°04' E 012°16'0 0.0
2014-Jul-12 13:28N 57°04' E 012°16'0 0.0
2014-Jul-12 12:28N 57°04' E 012°16'0 0.0
2014-Jul-12 11:28N 57°04' E 012°16'0 0.0
2014-Jul-12 10:28N 57°04' E 012°16'0 0.0
2014-Jul-12 09:28N 57°04' E 012°16'0 0.0
2014-Jul-12 08:28N 57°04' E 012°16'  

Dump ship's entire track history